sensor_id;sensor_type;location;lat;lon;timestamp;P1;durP1;ratioP1;P2;durP2;ratioP2
13374;SDS011;6756;51.354;15.754;2022-08-25T00:00:51;17.53;;;15.63;;
13374;SDS011;6756;51.354;15.754;2022-08-25T00:04:52;16.80;;;14.83;;
13374;SDS011;6756;51.354;15.754;2022-08-25T00:08:53;16.33;;;14.57;;
13374;SDS011;6756;51.354;15.754;2022-08-25T00:12:58;17.33;;;15.43;;
13374;SDS011;6756;51.354;15.754;2022-08-25T00:17:00;16.67;;;14.90;;
13374;SDS011;6756;51.354;15.754;2022-08-25T00:21:01;17.27;;;14.37;;
13374;SDS011;6756;51.354;15.754;2022-08-25T00:25:02;15.07;;;13.47;;
13374;SDS011;6756;51.354;15.754;2022-08-25T00:29:03;16.67;;;14.87;;
13374;SDS011;6756;51.354;15.754;2022-08-25T00:33:04;16.43;;;14.63;;
13374;SDS011;6756;51.354;15.754;2022-08-25T00:37:06;15.10;;;12.93;;
13374;SDS011;6756;51.354;15.754;2022-08-25T00:41:08;14.87;;;13.23;;
13374;SDS011;6756;51.354;15.754;2022-08-25T00:45:11;18.10;;;14.00;;
13374;SDS011;6756;51.354;15.754;2022-08-25T00:49:13;15.33;;;13.73;;
13374;SDS011;6756;51.354;15.754;2022-08-25T00:53:23;15.80;;;14.13;;
13374;SDS011;6756;51.354;15.754;2022-08-25T00:57:41;17.10;;;14.57;;
13374;SDS011;6756;51.354;15.754;2022-08-25T01:01:46;15.33;;;13.73;;
13374;SDS011;6756;51.354;15.754;2022-08-25T01:05:48;15.27;;;13.60;;
13374;SDS011;6756;51.354;15.754;2022-08-25T01:09:50;17.73;;;14.90;;
13374;SDS011;6756;51.354;15.754;2022-08-25T01:13:53;16.03;;;14.27;;
13374;SDS011;6756;51.354;15.754;2022-08-25T01:17:56;15.50;;;13.90;;
13374;SDS011;6756;51.354;15.754;2022-08-25T01:21:57;16.83;;;15.13;;
13374;SDS011;6756;51.354;15.754;2022-08-25T01:26:09;15.67;;;14.10;;
13374;SDS011;6756;51.354;15.754;2022-08-25T01:30:22;16.23;;;14.63;;
13374;SDS011;6756;51.354;15.754;2022-08-25T01:34:25;17.37;;;15.33;;
13374;SDS011;6756;51.354;15.754;2022-08-25T01:38:28;17.00;;;14.63;;
13374;SDS011;6756;51.354;15.754;2022-08-25T01:42:37;17.93;;;16.10;;
13374;SDS011;6756;51.354;15.754;2022-08-25T01:47:02;15.93;;;14.33;;
13374;SDS011;6756;51.354;15.754;2022-08-25T01:51:03;17.60;;;15.53;;
13374;SDS011;6756;51.354;15.754;2022-08-25T01:55:04;16.00;;;14.30;;
13374;SDS011;6756;51.354;15.754;2022-08-25T01:59:05;15.17;;;13.57;;
13374;SDS011;6756;51.354;15.754;2022-08-25T02:03:06;21.23;;;18.40;;
13374;SDS011;6756;51.354;15.754;2022-08-25T02:07:07;18.77;;;16.83;;
13374;SDS011;6756;51.354;15.754;2022-08-25T02:11:09;18.33;;;16.43;;
13374;SDS011;6756;51.354;15.754;2022-08-25T02:15:11;23.57;;;21.07;;
13374;SDS011;6756;51.354;15.754;2022-08-25T02:19:13;17.67;;;15.80;;
13374;SDS011;6756;51.354;15.754;2022-08-25T02:23:15;15.03;;;13.47;;
13374;SDS011;6756;51.354;15.754;2022-08-25T02:27:16;14.63;;;13.13;;
13374;SDS011;6756;51.354;15.754;2022-08-25T02:31:18;27.40;;;22.67;;
13374;SDS011;6756;51.354;15.754;2022-08-25T02:35:21;33.80;;;17.73;;
13374;SDS011;6756;51.354;15.754;2022-08-25T02:39:23;30.17;;;26.13;;
13374;SDS011;6756;51.354;15.754;2022-08-25T02:43:24;24.63;;;20.60;;
13374;SDS011;6756;51.354;15.754;2022-08-25T02:47:25;20.30;;;18.10;;
13374;SDS011;6756;51.354;15.754;2022-08-25T02:51:27;18.53;;;16.63;;
13374;SDS011;6756;51.354;15.754;2022-08-25T02:55:29;16.80;;;15.10;;
13374;SDS011;6756;51.354;15.754;2022-08-25T02:59:29;16.13;;;14.23;;
13374;SDS011;6756;51.354;15.754;2022-08-25T03:03:30;16.67;;;14.87;;
13374;SDS011;6756;51.354;15.754;2022-08-25T03:07:32;16.70;;;14.47;;
13374;SDS011;6756;51.354;15.754;2022-08-25T03:11:34;17.87;;;15.97;;
13374;SDS011;6756;51.354;15.754;2022-08-25T03:15:37;18.93;;;16.17;;
13374;SDS011;6756;51.354;15.754;2022-08-25T03:19:38;17.20;;;15.30;;
13374;SDS011;6756;51.354;15.754;2022-08-25T03:23:39;20.67;;;17.83;;
13374;SDS011;6756;51.354;15.754;2022-08-25T03:27:41;18.20;;;15.70;;
13374;SDS011;6756;51.354;15.754;2022-08-25T03:31:42;17.50;;;15.57;;
13374;SDS011;6756;51.354;15.754;2022-08-25T03:35:43;15.30;;;13.77;;
13374;SDS011;6756;51.354;15.754;2022-08-25T03:39:45;14.47;;;13.07;;
13374;SDS011;6756;51.354;15.754;2022-08-25T03:43:46;13.23;;;12.00;;
13374;SDS011;6756;51.354;15.754;2022-08-25T03:47:47;11.77;;;10.67;;
13374;SDS011;6756;51.354;15.754;2022-08-25T03:51:49;12.10;;;10.90;;
13374;SDS011;6756;51.354;15.754;2022-08-25T03:55:51;12.27;;;10.73;;
13374;SDS011;6756;51.354;15.754;2022-08-25T03:59:52;12.53;;;11.33;;
13374;SDS011;6756;51.354;15.754;2022-08-25T04:03:53;14.90;;;13.33;;
13374;SDS011;6756;51.354;15.754;2022-08-25T04:07:54;13.47;;;12.10;;
13374;SDS011;6756;51.354;15.754;2022-08-25T04:11:55;12.77;;;11.57;;
13374;SDS011;6756;51.354;15.754;2022-08-25T04:15:55;12.87;;;11.57;;
13374;SDS011;6756;51.354;15.754;2022-08-25T04:19:56;12.53;;;11.23;;
13374;SDS011;6756;51.354;15.754;2022-08-25T04:23:57;12.97;;;11.77;;
13374;SDS011;6756;51.354;15.754;2022-08-25T04:27:58;13.47;;;12.07;;
13374;SDS011;6756;51.354;15.754;2022-08-25T04:31:58;12.53;;;11.37;;
13374;SDS011;6756;51.354;15.754;2022-08-25T04:35:59;12.37;;;11.17;;
13374;SDS011;6756;51.354;15.754;2022-08-25T04:40:00;12.03;;;10.83;;
13374;SDS011;6756;51.354;15.754;2022-08-25T04:44:02;19.13;;;15.77;;
13374;SDS011;6756;51.354;15.754;2022-08-25T04:48:03;17.87;;;15.97;;
13374;SDS011;6756;51.354;15.754;2022-08-25T04:52:04;15.00;;;13.40;;
13374;SDS011;6756;51.354;15.754;2022-08-25T04:56:06;17.10;;;14.17;;
13374;SDS011;6756;51.354;15.754;2022-08-25T05:00:09;13.53;;;12.13;;
13374;SDS011;6756;51.354;15.754;2022-08-25T05:04:11;13.73;;;12.33;;
13374;SDS011;6756;51.354;15.754;2022-08-25T05:08:13;19.17;;;16.37;;
13374;SDS011;6756;51.354;15.754;2022-08-25T05:12:14;20.83;;;16.63;;
13374;SDS011;6756;51.354;15.754;2022-08-25T05:16:16;16.27;;;14.63;;
13374;SDS011;6756;51.354;15.754;2022-08-25T05:20:17;25.07;;;21.83;;
13374;SDS011;6756;51.354;15.754;2022-08-25T05:24:19;19.57;;;17.57;;
13374;SDS011;6756;51.354;15.754;2022-08-25T05:28:20;16.63;;;15.00;;
13374;SDS011;6756;51.354;15.754;2022-08-25T05:32:21;23.33;;;20.93;;
13374;SDS011;6756;51.354;15.754;2022-08-25T05:36:22;22.20;;;19.83;;
13374;SDS011;6756;51.354;15.754;2022-08-25T05:40:24;18.30;;;16.30;;
13374;SDS011;6756;51.354;15.754;2022-08-25T05:44:25;18.63;;;16.80;;
13374;SDS011;6756;51.354;15.754;2022-08-25T05:48:26;18.27;;;16.40;;
13374;SDS011;6756;51.354;15.754;2022-08-25T05:52:27;16.93;;;15.23;;
13374;SDS011;6756;51.354;15.754;2022-08-25T05:56:28;21.83;;;19.37;;
13374;SDS011;6756;51.354;15.754;2022-08-25T06:00:28;27.87;;;22.13;;
13374;SDS011;6756;51.354;15.754;2022-08-25T06:04:29;21.80;;;18.50;;
13374;SDS011;6756;51.354;15.754;2022-08-25T06:08:31;26.00;;;21.33;;
13374;SDS011;6756;51.354;15.754;2022-08-25T06:12:32;31.83;;;24.23;;
13374;SDS011;6756;51.354;15.754;2022-08-25T06:16:35;30.10;;;23.37;;
13374;SDS011;6756;51.354;15.754;2022-08-25T06:20:37;25.43;;;19.27;;
13374;SDS011;6756;51.354;15.754;2022-08-25T06:24:38;33.23;;;22.90;;
13374;SDS011;6756;51.354;15.754;2022-08-25T06:28:39;22.60;;;17.20;;
13374;SDS011;6756;51.354;15.754;2022-08-25T06:32:40;31.20;;;23.00;;
13374;SDS011;6756;51.354;15.754;2022-08-25T06:36:43;24.43;;;21.77;;
13374;SDS011;6756;51.354;15.754;2022-08-25T06:40:45;23.23;;;19.00;;
13374;SDS011;6756;51.354;15.754;2022-08-25T06:44:47;25.73;;;19.67;;
13374;SDS011;6756;51.354;15.754;2022-08-25T06:48:48;19.93;;;16.90;;
13374;SDS011;6756;51.354;15.754;2022-08-25T06:52:49;20.40;;;16.90;;
13374;SDS011;6756;51.354;15.754;2022-08-25T06:56:50;18.27;;;15.83;;
13374;SDS011;6756;51.354;15.754;2022-08-25T07:00:51;17.00;;;15.23;;
13374;SDS011;6756;51.354;15.754;2022-08-25T07:04:52;15.57;;;12.60;;
13374;SDS011;6756;51.354;15.754;2022-08-25T07:08:53;13.50;;;12.10;;
13374;SDS011;6756;51.354;15.754;2022-08-25T07:12:54;18.10;;;14.57;;
13374;SDS011;6756;51.354;15.754;2022-08-25T07:16:55;10.70;;;9.70;;
13374;SDS011;6756;51.354;15.754;2022-08-25T07:20:56;11.03;;;9.93;;
13374;SDS011;6756;51.354;15.754;2022-08-25T07:24:58;13.97;;;12.50;;
13374;SDS011;6756;51.354;15.754;2022-08-25T07:28:58;18.80;;;16.47;;
13374;SDS011;6756;51.354;15.754;2022-08-25T07:33:00;19.60;;;16.07;;
13374;SDS011;6756;51.354;15.754;2022-08-25T07:37:01;17.23;;;15.40;;
13374;SDS011;6756;51.354;15.754;2022-08-25T07:41:07;15.50;;;12.87;;
13374;SDS011;6756;51.354;15.754;2022-08-25T07:45:09;19.67;;;17.20;;
13374;SDS011;6756;51.354;15.754;2022-08-25T07:49:10;20.97;;;18.43;;
13374;SDS011;6756;51.354;15.754;2022-08-25T07:53:12;23.73;;;19.73;;
13374;SDS011;6756;51.354;15.754;2022-08-25T07:57:14;18.47;;;15.87;;
13374;SDS011;6756;51.354;15.754;2022-08-25T08:01:19;16.40;;;14.30;;
13374;SDS011;6756;51.354;15.754;2022-08-25T08:05:22;26.40;;;20.97;;
13374;SDS011;6756;51.354;15.754;2022-08-25T08:09:23;25.47;;;22.70;;
13374;SDS011;6756;51.354;15.754;2022-08-25T08:13:24;25.47;;;21.67;;
13374;SDS011;6756;51.354;15.754;2022-08-25T08:17:25;25.20;;;19.33;;
13374;SDS011;6756;51.354;15.754;2022-08-25T08:21:28;24.07;;;20.53;;
13374;SDS011;6756;51.354;15.754;2022-08-25T08:25:31;27.53;;;23.10;;
13374;SDS011;6756;51.354;15.754;2022-08-25T08:29:32;29.53;;;25.13;;
13374;SDS011;6756;51.354;15.754;2022-08-25T08:33:34;34.60;;;26.43;;
13374;SDS011;6756;51.354;15.754;2022-08-25T08:37:35;25.97;;;23.17;;
13374;SDS011;6756;51.354;15.754;2022-08-25T08:46:17;23.27;;;18.63;;
13374;SDS011;6756;51.354;15.754;2022-08-25T08:54:22;24.33;;;19.87;;
13374;SDS011;6756;51.354;15.754;2022-08-25T08:58:29;26.07;;;21.00;;
13374;SDS011;6756;51.354;15.754;2022-08-25T09:07:10;29.90;;;19.13;;
13374;SDS011;6756;51.354;15.754;2022-08-25T09:20:06;24.83;;;20.73;;
13374;SDS011;6756;51.354;15.754;2022-08-25T09:28:35;25.57;;;19.37;;
13374;SDS011;6756;51.354;15.754;2022-08-25T09:33:01;23.50;;;18.10;;
13374;SDS011;6756;51.354;15.754;2022-08-25T09:37:03;24.40;;;20.10;;
13374;SDS011;6756;51.354;15.754;2022-08-25T09:41:05;22.33;;;18.10;;
13374;SDS011;6756;51.354;15.754;2022-08-25T09:45:06;20.90;;;18.00;;
13374;SDS011;6756;51.354;15.754;2022-08-25T09:49:12;26.77;;;18.83;;
13374;SDS011;6756;51.354;15.754;2022-08-25T09:53:18;26.50;;;20.40;;
13374;SDS011;6756;51.354;15.754;2022-08-25T10:01:29;18.27;;;16.23;;
13374;SDS011;6756;51.354;15.754;2022-08-25T10:05:31;19.40;;;17.03;;
13374;SDS011;6756;51.354;15.754;2022-08-25T10:09:40;18.53;;;13.90;;
13374;SDS011;6756;51.354;15.754;2022-08-25T10:13:43;21.67;;;16.60;;
13374;SDS011;6756;51.354;15.754;2022-08-25T10:17:46;25.10;;;17.53;;
13374;SDS011;6756;51.354;15.754;2022-08-25T10:22:03;18.53;;;14.17;;
13374;SDS011;6756;51.354;15.754;2022-08-25T10:26:08;20.80;;;15.60;;
13374;SDS011;6756;51.354;15.754;2022-08-25T10:30:22;24.10;;;14.15;;
13374;SDS011;6756;51.354;15.754;2022-08-25T10:38:36;21.35;;;15.77;;
13374;SDS011;6756;51.354;15.754;2022-08-25T10:42:39;19.45;;;15.27;;
13374;SDS011;6756;51.354;15.754;2022-08-25T10:46:51;20.02;;;14.02;;
13374;SDS011;6756;51.354;15.754;2022-08-25T10:51:20;14.82;;;13.27;;
13374;SDS011;6756;51.354;15.754;2022-08-25T11:04:06;18.15;;;13.43;;
13374;SDS011;6756;51.354;15.754;2022-08-25T11:08:39;19.10;;;13.18;;
13374;SDS011;6756;51.354;15.754;2022-08-25T11:12:55;11.93;;;9.13;;
13374;SDS011;6756;51.354;15.754;2022-08-25T11:21:14;16.73;;;11.45;;
13374;SDS011;6756;51.354;15.754;2022-08-25T11:25:28;16.52;;;12.18;;
13374;SDS011;6756;51.354;15.754;2022-08-25T11:29:42;14.20;;;8.60;;
13374;SDS011;6756;51.354;15.754;2022-08-25T11:33:52;13.95;;;9.10;;
13374;SDS011;6756;51.354;15.754;2022-08-25T11:51:41;12.25;;;9.48;;
13374;SDS011;6756;51.354;15.754;2022-08-25T11:55:50;18.48;;;12.27;;
13374;SDS011;6756;51.354;15.754;2022-08-25T12:04:10;12.77;;;8.25;;
13374;SDS011;6756;51.354;15.754;2022-08-25T12:08:14;17.40;;;9.65;;
13374;SDS011;6756;51.354;15.754;2022-08-25T12:12:58;18.05;;;9.15;;
13374;SDS011;6756;51.354;15.754;2022-08-25T12:17:24;13.13;;;7.95;;
13374;SDS011;6756;51.354;15.754;2022-08-25T12:21:30;17.17;;;9.95;;
13374;SDS011;6756;51.354;15.754;2022-08-25T12:25:34;13.95;;;7.78;;
13374;SDS011;6756;51.354;15.754;2022-08-25T12:29:43;13.77;;;8.75;;
13374;SDS011;6756;51.354;15.754;2022-08-25T12:33:54;14.20;;;8.35;;
13374;SDS011;6756;51.354;15.754;2022-08-25T12:38:35;10.48;;;7.20;;
13374;SDS011;6756;51.354;15.754;2022-08-25T12:42:46;12.43;;;7.18;;
13374;SDS011;6756;51.354;15.754;2022-08-25T12:47:10;12.75;;;7.22;;
13374;SDS011;6756;51.354;15.754;2022-08-25T12:51:17;13.95;;;8.27;;
13374;SDS011;6756;51.354;15.754;2022-08-25T12:55:19;19.02;;;8.45;;
13374;SDS011;6756;51.354;15.754;2022-08-25T12:59:22;15.23;;;7.40;;
13374;SDS011;6756;51.354;15.754;2022-08-25T13:08:06;19.50;;;7.85;;
13374;SDS011;6756;51.354;15.754;2022-08-25T13:12:36;18.38;;;8.48;;
13374;SDS011;6756;51.354;15.754;2022-08-25T13:16:39;21.15;;;9.45;;
13374;SDS011;6756;51.354;15.754;2022-08-25T13:25:22;21.20;;;8.55;;
13374;SDS011;6756;51.354;15.754;2022-08-25T13:29:28;18.13;;;8.45;;
13374;SDS011;6756;51.354;15.754;2022-08-25T13:33:31;17.83;;;8.30;;
13374;SDS011;6756;51.354;15.754;2022-08-25T13:37:33;13.73;;;7.90;;
13374;SDS011;6756;51.354;15.754;2022-08-25T13:41:34;12.77;;;8.00;;
13374;SDS011;6756;51.354;15.754;2022-08-25T13:45:39;18.60;;;8.68;;
13374;SDS011;6756;51.354;15.754;2022-08-25T13:49:46;14.75;;;8.48;;
13374;SDS011;6756;51.354;15.754;2022-08-25T13:53:58;10.82;;;8.10;;
13374;SDS011;6756;51.354;15.754;2022-08-25T13:58:05;24.67;;;9.27;;
13374;SDS011;6756;51.354;15.754;2022-08-25T14:02:13;21.95;;;9.25;;
13374;SDS011;6756;51.354;15.754;2022-08-25T14:06:39;14.05;;;7.20;;
13374;SDS011;6756;51.354;15.754;2022-08-25T14:10:47;21.30;;;8.02;;
13374;SDS011;6756;51.354;15.754;2022-08-25T14:14:56;18.30;;;8.85;;
13374;SDS011;6756;51.354;15.754;2022-08-25T14:19:20;17.10;;;7.93;;
13374;SDS011;6756;51.354;15.754;2022-08-25T14:23:23;17.27;;;7.38;;
13374;SDS011;6756;51.354;15.754;2022-08-25T14:27:26;24.60;;;8.32;;
13374;SDS011;6756;51.354;15.754;2022-08-25T14:31:28;22.48;;;8.40;;
13374;SDS011;6756;51.354;15.754;2022-08-25T14:35:33;23.20;;;8.55;;
13374;SDS011;6756;51.354;15.754;2022-08-25T14:39:34;18.38;;;7.88;;
13374;SDS011;6756;51.354;15.754;2022-08-25T14:43:34;18.20;;;7.45;;
13374;SDS011;6756;51.354;15.754;2022-08-25T14:47:36;18.23;;;7.13;;
13374;SDS011;6756;51.354;15.754;2022-08-25T14:51:37;16.30;;;7.13;;
13374;SDS011;6756;51.354;15.754;2022-08-25T14:55:41;18.05;;;7.45;;
13374;SDS011;6756;51.354;15.754;2022-08-25T14:59:42;22.65;;;7.47;;
13374;SDS011;6756;51.354;15.754;2022-08-25T15:03:44;16.67;;;6.47;;
13374;SDS011;6756;51.354;15.754;2022-08-25T15:07:47;17.52;;;7.25;;
13374;SDS011;6756;51.354;15.754;2022-08-25T15:12:06;23.30;;;6.93;;
13374;SDS011;6756;51.354;15.754;2022-08-25T15:16:07;18.83;;;7.50;;
13374;SDS011;6756;51.354;15.754;2022-08-25T15:20:08;21.65;;;7.00;;
13374;SDS011;6756;51.354;15.754;2022-08-25T15:24:09;12.85;;;6.68;;
13374;SDS011;6756;51.354;15.754;2022-08-25T15:28:11;21.83;;;7.03;;
13374;SDS011;6756;51.354;15.754;2022-08-25T15:32:15;19.27;;;7.10;;
13374;SDS011;6756;51.354;15.754;2022-08-25T15:36:23;18.10;;;7.20;;
13374;SDS011;6756;51.354;15.754;2022-08-25T15:40:26;18.90;;;7.15;;
13374;SDS011;6756;51.354;15.754;2022-08-25T15:44:27;21.65;;;6.95;;
13374;SDS011;6756;51.354;15.754;2022-08-25T15:48:28;20.05;;;7.65;;
13374;SDS011;6756;51.354;15.754;2022-08-25T15:52:29;15.10;;;7.18;;
13374;SDS011;6756;51.354;15.754;2022-08-25T15:56:30;21.88;;;8.07;;
13374;SDS011;6756;51.354;15.754;2022-08-25T16:00:30;23.48;;;8.15;;
13374;SDS011;6756;51.354;15.754;2022-08-25T16:04:31;20.60;;;6.55;;
13374;SDS011;6756;51.354;15.754;2022-08-25T16:08:32;15.18;;;7.00;;
13374;SDS011;6756;51.354;15.754;2022-08-25T16:12:33;18.70;;;6.93;;
13374;SDS011;6756;51.354;15.754;2022-08-25T16:16:34;15.85;;;6.65;;
13374;SDS011;6756;51.354;15.754;2022-08-25T16:20:35;18.83;;;7.07;;
13374;SDS011;6756;51.354;15.754;2022-08-25T16:24:39;18.05;;;7.03;;
13374;SDS011;6756;51.354;15.754;2022-08-25T16:28:43;15.35;;;7.43;;
13374;SDS011;6756;51.354;15.754;2022-08-25T16:32:44;19.63;;;6.95;;
13374;SDS011;6756;51.354;15.754;2022-08-25T16:36:46;19.90;;;7.38;;
13374;SDS011;6756;51.354;15.754;2022-08-25T16:40:47;20.65;;;7.57;;
13374;SDS011;6756;51.354;15.754;2022-08-25T16:44:47;19.48;;;7.05;;
13374;SDS011;6756;51.354;15.754;2022-08-25T16:48:48;22.75;;;8.25;;
13374;SDS011;6756;51.354;15.754;2022-08-25T16:52:49;16.75;;;8.05;;
13374;SDS011;6756;51.354;15.754;2022-08-25T16:57:08;19.95;;;7.97;;
13374;SDS011;6756;51.354;15.754;2022-08-25T17:01:12;21.33;;;8.15;;
13374;SDS011;6756;51.354;15.754;2022-08-25T17:05:20;12.73;;;7.43;;
13374;SDS011;6756;51.354;15.754;2022-08-25T17:09:21;18.33;;;8.15;;
13374;SDS011;6756;51.354;15.754;2022-08-25T17:13:22;21.08;;;9.10;;
13374;SDS011;6756;51.354;15.754;2022-08-25T17:17:22;23.63;;;9.35;;
13374;SDS011;6756;51.354;15.754;2022-08-25T17:21:23;16.75;;;7.60;;
13374;SDS011;6756;51.354;15.754;2022-08-25T17:25:28;12.02;;;7.40;;
13374;SDS011;6756;51.354;15.754;2022-08-25T17:29:28;13.40;;;7.30;;
13374;SDS011;6756;51.354;15.754;2022-08-25T17:33:29;12.05;;;7.18;;
13374;SDS011;6756;51.354;15.754;2022-08-25T17:37:30;10.27;;;7.05;;
13374;SDS011;6756;51.354;15.754;2022-08-25T17:41:31;10.52;;;7.63;;
13374;SDS011;6756;51.354;15.754;2022-08-25T17:45:32;12.43;;;6.97;;
13374;SDS011;6756;51.354;15.754;2022-08-25T17:49:33;11.15;;;6.90;;
13374;SDS011;6756;51.354;15.754;2022-08-25T17:53:34;7.75;;;6.95;;
13374;SDS011;6756;51.354;15.754;2022-08-25T17:57:35;11.50;;;7.70;;
13374;SDS011;6756;51.354;15.754;2022-08-25T18:01:36;10.00;;;7.57;;
13374;SDS011;6756;51.354;15.754;2022-08-25T18:05:37;11.50;;;8.13;;
13374;SDS011;6756;51.354;15.754;2022-08-25T18:09:38;14.83;;;8.77;;
13374;SDS011;6756;51.354;15.754;2022-08-25T18:13:40;12.70;;;8.17;;
13374;SDS011;6756;51.354;15.754;2022-08-25T18:17:42;10.47;;;7.93;;
13374;SDS011;6756;51.354;15.754;2022-08-25T18:21:43;13.63;;;9.20;;
13374;SDS011;6756;51.354;15.754;2022-08-25T18:25:44;11.27;;;8.53;;
13374;SDS011;6756;51.354;15.754;2022-08-25T18:29:46;10.07;;;8.33;;
13374;SDS011;6756;51.354;15.754;2022-08-25T18:33:47;10.50;;;8.07;;
13374;SDS011;6756;51.354;15.754;2022-08-25T18:37:48;11.47;;;8.13;;
13374;SDS011;6756;51.354;15.754;2022-08-25T18:42:07;10.10;;;8.30;;
13374;SDS011;6756;51.354;15.754;2022-08-25T18:46:08;11.77;;;8.47;;
13374;SDS011;6756;51.354;15.754;2022-08-25T18:50:10;14.83;;;9.50;;
13374;SDS011;6756;51.354;15.754;2022-08-25T18:54:11;9.87;;;8.30;;
13374;SDS011;6756;51.354;15.754;2022-08-25T18:58:14;11.60;;;8.57;;
13374;SDS011;6756;51.354;15.754;2022-08-25T19:02:15;9.80;;;8.47;;
13374;SDS011;6756;51.354;15.754;2022-08-25T19:06:16;11.03;;;8.20;;
13374;SDS011;6756;51.354;15.754;2022-08-25T19:10:18;10.20;;;8.23;;
13374;SDS011;6756;51.354;15.754;2022-08-25T19:14:20;9.70;;;8.63;;
13374;SDS011;6756;51.354;15.754;2022-08-25T19:18:20;9.57;;;7.80;;
13374;SDS011;6756;51.354;15.754;2022-08-25T19:22:21;10.53;;;8.47;;
13374;SDS011;6756;51.354;15.754;2022-08-25T19:26:22;9.17;;;8.17;;
13374;SDS011;6756;51.354;15.754;2022-08-25T19:30:24;12.27;;;9.07;;
13374;SDS011;6756;51.354;15.754;2022-08-25T19:34:28;11.17;;;8.67;;
13374;SDS011;6756;51.354;15.754;2022-08-25T19:38:30;11.37;;;9.50;;
13374;SDS011;6756;51.354;15.754;2022-08-25T19:42:31;10.47;;;9.10;;
13374;SDS011;6756;51.354;15.754;2022-08-25T19:46:34;11.07;;;9.07;;
13374;SDS011;6756;51.354;15.754;2022-08-25T19:50:36;12.37;;;9.10;;
13374;SDS011;6756;51.354;15.754;2022-08-25T19:54:41;9.33;;;8.33;;
13374;SDS011;6756;51.354;15.754;2022-08-25T19:58:44;9.50;;;7.63;;
13374;SDS011;6756;51.354;15.754;2022-08-25T20:02:45;11.60;;;8.37;;
13374;SDS011;6756;51.354;15.754;2022-08-25T20:06:46;13.07;;;8.37;;
13374;SDS011;6756;51.354;15.754;2022-08-25T20:10:47;11.40;;;7.37;;
13374;SDS011;6756;51.354;15.754;2022-08-25T20:14:49;10.13;;;8.07;;
13374;SDS011;6756;51.354;15.754;2022-08-25T20:18:50;9.53;;;7.90;;
13374;SDS011;6756;51.354;15.754;2022-08-25T20:22:52;10.30;;;7.97;;
13374;SDS011;6756;51.354;15.754;2022-08-25T20:26:53;9.70;;;8.17;;
13374;SDS011;6756;51.354;15.754;2022-08-25T20:30:55;10.17;;;7.83;;
13374;SDS011;6756;51.354;15.754;2022-08-25T20:34:56;11.43;;;8.10;;
13374;SDS011;6756;51.354;15.754;2022-08-25T20:38:57;12.60;;;9.00;;
13374;SDS011;6756;51.354;15.754;2022-08-25T20:42:58;9.10;;;8.13;;
13374;SDS011;6756;51.354;15.754;2022-08-25T20:47:06;10.43;;;8.07;;
13374;SDS011;6756;51.354;15.754;2022-08-25T20:51:09;8.73;;;7.73;;
13374;SDS011;6756;51.354;15.754;2022-08-25T20:55:15;8.80;;;7.90;;
13374;SDS011;6756;51.354;15.754;2022-08-25T20:59:16;8.80;;;8.00;;
13374;SDS011;6756;51.354;15.754;2022-08-25T21:03:17;10.67;;;8.00;;
13374;SDS011;6756;51.354;15.754;2022-08-25T21:07:18;9.17;;;7.53;;
13374;SDS011;6756;51.354;15.754;2022-08-25T21:11:20;9.00;;;8.10;;
13374;SDS011;6756;51.354;15.754;2022-08-25T21:15:23;13.13;;;7.87;;
13374;SDS011;6756;51.354;15.754;2022-08-25T21:19:25;9.50;;;7.87;;
13374;SDS011;6756;51.354;15.754;2022-08-25T21:23:26;9.67;;;8.13;;
13374;SDS011;6756;51.354;15.754;2022-08-25T21:27:27;11.33;;;7.40;;
13374;SDS011;6756;51.354;15.754;2022-08-25T21:31:28;10.27;;;7.47;;
13374;SDS011;6756;51.354;15.754;2022-08-25T21:35:30;9.00;;;8.07;;
13374;SDS011;6756;51.354;15.754;2022-08-25T21:39:30;11.23;;;8.50;;
13374;SDS011;6756;51.354;15.754;2022-08-25T21:43:32;10.83;;;8.47;;
13374;SDS011;6756;51.354;15.754;2022-08-25T21:47:32;10.87;;;8.13;;
13374;SDS011;6756;51.354;15.754;2022-08-25T21:51:41;8.20;;;7.40;;
13374;SDS011;6756;51.354;15.754;2022-08-25T21:55:43;7.03;;;6.30;;
13374;SDS011;6756;51.354;15.754;2022-08-25T21:59:44;9.20;;;6.90;;
13374;SDS011;6756;51.354;15.754;2022-08-25T22:03:45;8.90;;;7.43;;
13374;SDS011;6756;51.354;15.754;2022-08-25T22:07:46;11.20;;;8.07;;
13374;SDS011;6756;51.354;15.754;2022-08-25T22:11:47;10.30;;;8.13;;
13374;SDS011;6756;51.354;15.754;2022-08-25T22:15:49;10.67;;;8.10;;
13374;SDS011;6756;51.354;15.754;2022-08-25T22:19:50;11.03;;;8.80;;
13374;SDS011;6756;51.354;15.754;2022-08-25T22:23:51;11.80;;;7.93;;
13374;SDS011;6756;51.354;15.754;2022-08-25T22:27:54;9.37;;;7.70;;
13374;SDS011;6756;51.354;15.754;2022-08-25T22:31:56;8.90;;;7.03;;
13374;SDS011;6756;51.354;15.754;2022-08-25T22:35:57;8.67;;;6.23;;
13374;SDS011;6756;51.354;15.754;2022-08-25T22:39:57;6.20;;;5.23;;
13374;SDS011;6756;51.354;15.754;2022-08-25T22:43:58;7.10;;;6.40;;
13374;SDS011;6756;51.354;15.754;2022-08-25T22:47:59;7.63;;;6.67;;
13374;SDS011;6756;51.354;15.754;2022-08-25T22:52:00;8.33;;;7.37;;
13374;SDS011;6756;51.354;15.754;2022-08-25T22:56:02;7.67;;;6.70;;
13374;SDS011;6756;51.354;15.754;2022-08-25T23:00:04;6.53;;;5.93;;
13374;SDS011;6756;51.354;15.754;2022-08-25T23:04:09;6.13;;;5.50;;
13374;SDS011;6756;51.354;15.754;2022-08-25T23:08:11;6.17;;;5.40;;
13374;SDS011;6756;51.354;15.754;2022-08-25T23:12:11;7.47;;;6.20;;
13374;SDS011;6756;51.354;15.754;2022-08-25T23:16:13;6.97;;;6.27;;
13374;SDS011;6756;51.354;15.754;2022-08-25T23:20:14;7.97;;;7.00;;
13374;SDS011;6756;51.354;15.754;2022-08-25T23:24:35;7.70;;;6.93;;
13374;SDS011;6756;51.354;15.754;2022-08-25T23:28:37;7.70;;;7.00;;
13374;SDS011;6756;51.354;15.754;2022-08-25T23:32:38;7.60;;;6.60;;
13374;SDS011;6756;51.354;15.754;2022-08-25T23:36:39;8.77;;;7.00;;
13374;SDS011;6756;51.354;15.754;2022-08-25T23:40:41;6.80;;;6.20;;
13374;SDS011;6756;51.354;15.754;2022-08-25T23:44:42;8.53;;;6.43;;
13374;SDS011;6756;51.354;15.754;2022-08-25T23:48:43;6.63;;;5.93;;
13374;SDS011;6756;51.354;15.754;2022-08-25T23:52:44;8.03;;;5.87;;
13374;SDS011;6756;51.354;15.754;2022-08-25T23:56:45;7.77;;;5.43;;
